Flight Track Log - Related Links

Times and Time Zones

All times are in EDT time to prevent confusion due to time zone crossing. See the N151CL flight status page for this flight to view local times or setup timezone preferences in your user account.

Time Position Orientation Groundspeed Altitude Reporting Facility
EDT Latitude Longitude Course Direction KTS MPH feet Rate Location/Type
Mon 07:57:51 PM 44.7650 -85.5892 147° Southeast 81 93 1,200  Level Minneapolis Center
Mon 07:58:53 PM 44.7850 -85.5928 353° North 74 85 1,800 581 Climbing Minneapolis Center
Mon 07:59:55 PM 44.7844 -85.6344 269° West 85 98 2,400 488 Climbing Minneapolis Center
Mon 08:00:56 PM 44.7800 -85.6589 256° West 92 106 2,800 488 Climbing Minneapolis Center
Mon 08:01:58 PM 44.7483 -85.6653 188° South 95 109 3,400 532 Climbing Minneapolis Center
Mon 08:03:00 PM 44.6086 -85.4379 147° Southeast  Level Estimated
Mon 08:03:00 PM 44.7228 -85.6669 183° South 93 107 3,900  Level Minneapolis Center
Mon 08:04:02 PM 44.6986 -85.6483 151° Southeast 95 109 4,300 390 Climbing Minneapolis Center
Mon 08:05:03 PM 44.6761 -85.6278 147° Southeast 97 112 4,700 341 Climbing Minneapolis Center
Mon 08:06:05 PM 44.6536 -85.6078 148° Southeast 96 110 5,000 145 Climbing Minneapolis Center
Mon 08:07:07 PM 44.6211 -85.5736 143° Southeast 108 124 5,000  Level Minneapolis Center
Mon 08:08:08 PM 44.5936 -85.5389 138° Southeast 121 139 5,000  Level Minneapolis Center
Mon 08:09:10 PM 44.5661 -85.5053 139° Southeast 127 146 5,000  Level Minneapolis Center
Mon 08:10:11 PM 44.5369 -85.4769 145° Southeast 128 147 5,000  Level Minneapolis Center
Mon 08:11:13 PM 44.5081 -85.4486 145° Southeast 128 147 5,000  Level Minneapolis Center
Mon 08:12:15 PM 44.4797 -85.4194 144° Southeast 127 146 5,000  Level Minneapolis Center
Mon 08:13:16 PM 44.4514 -85.3892 143° Southeast 127 146 5,000  Level Minneapolis Center
Mon 08:14:18 PM 44.4225 -85.3575 142° Southeast 129 148 5,000  Level Minneapolis Center
Mon 08:15:20 PM 44.3889 -85.3192 141° Southeast 130 150 5,000  Level Minneapolis Center
Mon 08:16:21 PM 44.3622 -85.2842 137° Southeast 131 151 5,000  Level Minneapolis Center
Mon 08:17:23 PM 44.3361 -85.2506 137° Southeast 129 148 5,000 242 Level Minneapolis Center
Mon 08:18:25 PM 44.3086 -85.2222 144° Southeast 125 144 5,500 435 Climbing Minneapolis Center
Mon 08:19:27 PM 44.2858 -85.2006 146° Southeast 108 124 5,900 439 Climbing Minneapolis Center
Mon 08:20:28 PM 44.2656 -85.1819 147° Southeast 94 108 6,400 390 Climbing Minneapolis Center
Mon 08:21:30 PM 44.2456 -85.1644 148° Southeast 88 101 6,700 290 Climbing Minneapolis Center
Mon 08:22:32 PM 44.2172 -85.1392 147° Southeast 96 110 7,000 145 Climbing Minneapolis Center
Mon 08:23:34 PM 44.1878 -85.1108 145° Southeast 117 135 7,000  Level Minneapolis Center
Mon 08:24:35 PM 44.1572 -85.0808 145° Southeast 131 151 7,000  Level Minneapolis Center
Mon 08:25:37 PM 44.1278 -85.0508 144° Southeast 133 153 7,000  Level Minneapolis Center
Mon 08:26:39 PM 44.0967 -85.0228 147° Southeast 132 152 7,000  Level Minneapolis Center
Mon 08:27:41 PM 44.0664 -84.9942 146° Southeast 132 152 7,000  Level Minneapolis Center
Mon 08:28:42 PM 44.0350 -84.9644 146° Southeast 134 154 7,000  Level Minneapolis Center
Mon 08:29:44 PM 44.0019 -84.9308 144° Southeast 135 155 7,000  Level Minneapolis Center
Mon 08:30:46 PM 43.9708 -84.9019 146° Southeast 135 155 7,000  Level Minneapolis Center
Mon 08:31:48 PM 43.9392 -84.8747 148° Southeast 134 154 7,000  Level Minneapolis Center
Mon 08:32:50 PM 43.9103 -84.8489 147° Southeast 128 147 7,000  Level Minneapolis Center
Mon 08:33:51 PM 43.8814 -84.8217 146° Southeast 127 146 7,000  Level Minneapolis Center
Mon 08:34:53 PM 43.8461 -84.7847 143° Southeast 131 151 7,000  Level Minneapolis Center
Mon 08:35:55 PM 43.8175 -84.7533 142° Southeast 132 152 7,000  Level Minneapolis Center
Mon 08:36:57 PM 43.7886 -84.7214 141° Southeast 132 152 7,000  Level Minneapolis Center
Mon 08:37:59 PM 43.7597 -84.6908 143° Southeast 132 152 7,000  Level Minneapolis Center
Mon 08:39:01 PM 43.7306 -84.6600 143° Southeast 132 152 7,000  Level Minneapolis Center
Mon 08:40:15 PM 43.6961 -84.6228 142° Southeast 131 151 7,000  Level Minneapolis Center
Mon 08:41:17 PM 43.6625 -84.5856 141° Southeast 130 150 7,000  Level Minneapolis Center
Mon 08:42:19 PM 43.6344 -84.5556 142° Southeast 129 148 7,000  Level Minneapolis Center

Login

Don't have an account? Register now (free) for customized features, flight alerts, and more!